createdAt,value
2017-01-21T00:00:34.726Z,1017.47
2017-01-21T00:01:15.199Z,1017.46
2017-01-21T00:01:55.705Z,1017.48
2017-01-21T00:02:36.166Z,1017.47
2017-01-21T00:03:16.676Z,1017.52
2017-01-21T00:03:57.180Z,1017.49
2017-01-21T00:04:37.682Z,1017.5
2017-01-21T00:05:18.173Z,1017.54
2017-01-21T00:05:58.663Z,1017.55
2017-01-21T00:06:39.164Z,1017.54
2017-01-21T00:07:19.646Z,1017.54
2017-01-21T00:08:00.148Z,1017.54
2017-01-21T00:08:40.660Z,1017.55
2017-01-21T00:09:21.199Z,1017.5
2017-01-21T00:10:01.735Z,1017.56
2017-01-21T00:10:42.255Z,1017.63
2017-01-21T00:11:22.722Z,1017.52
2017-01-21T00:12:03.207Z,1017.58
2017-01-21T00:12:43.748Z,1017.5
2017-01-21T00:13:24.201Z,1017.55
2017-01-21T00:14:04.638Z,1017.51
2017-01-21T00:14:45.142Z,1017.6
2017-01-21T00:15:25.626Z,1017.5
2017-01-21T00:16:06.127Z,1017.55
2017-01-21T00:16:46.630Z,1017.55
2017-01-21T00:17:27.145Z,1017.52
2017-01-21T00:18:07.618Z,1017.52
2017-01-21T00:18:48.132Z,1017.56
2017-01-21T00:19:28.692Z,1017.52
2017-01-21T00:20:09.255Z,1017.53
2017-01-21T00:20:49.746Z,1017.5
2017-01-21T00:21:30.216Z,1017.51
2017-01-21T00:22:10.734Z,1017.48
2017-01-21T00:22:51.201Z,1017.48
2017-01-21T00:23:31.657Z,1017.47
2017-01-21T00:24:12.154Z,1017.48
2017-01-21T00:24:52.791Z,1017.5
2017-01-21T00:25:33.265Z,1017.49
2017-01-21T00:26:13.772Z,1017.45
2017-01-21T00:26:54.284Z,1017.38
2017-01-21T00:27:34.726Z,1017.41
2017-01-21T00:28:15.221Z,1017.45
2017-01-21T00:28:55.731Z,1017.42
2017-01-21T00:29:36.257Z,1017.44
2017-01-21T00:30:16.724Z,1017.41
2017-01-21T00:30:57.215Z,1017.37
2017-01-21T00:31:37.697Z,1017.38
2017-01-21T00:32:18.162Z,1017.38
2017-01-21T00:32:58.665Z,1017.41
2017-01-21T00:33:39.166Z,1017.41
2017-01-21T00:34:19.679Z,1017.35
2017-01-21T00:35:00.178Z,1017.39
2017-01-21T00:35:40.681Z,1017.4
2017-01-21T00:36:21.140Z,1017.38
2017-01-21T00:37:01.649Z,1017.38
2017-01-21T00:37:42.127Z,1017.32
2017-01-21T00:38:22.642Z,1017.34
2017-01-21T00:39:03.104Z,1017.35
2017-01-21T00:39:43.616Z,1017.36
2017-01-21T00:40:24.163Z,1017.33
2017-01-21T00:41:04.670Z,1017.3
2017-01-21T00:41:45.173Z,1017.31
2017-01-21T00:42:25.643Z,1017.33
2017-01-21T00:43:06.184Z,1017.29
2017-01-21T00:43:46.657Z,1017.29
2017-01-21T00:44:27.167Z,1017.28
2017-01-21T00:45:07.674Z,1017.28
2017-01-21T00:45:48.120Z,1017.3
2017-01-21T00:46:28.681Z,1017.28
2017-01-21T00:47:09.105Z,1017.29
2017-01-21T00:47:49.707Z,1017.26
2017-01-21T00:48:30.167Z,1017.23
2017-01-21T00:49:10.749Z,1017.24
2017-01-21T00:49:51.183Z,1017.25
2017-01-21T00:50:31.676Z,1017.31
2017-01-21T00:51:12.194Z,1017.29
2017-01-21T00:51:52.709Z,1017.23
2017-01-21T00:52:33.206Z,1017.24
2017-01-21T00:53:13.744Z,1017.27
2017-01-21T00:53:54.325Z,1017.23
2017-01-21T00:54:34.729Z,1017.28
2017-01-21T00:55:15.244Z,1017.24
2017-01-21T00:55:55.731Z,1017.24
2017-01-21T00:56:36.233Z,1017.24
2017-01-21T00:57:16.706Z,1017.26
2017-01-21T00:57:57.177Z,1017.24
2017-01-21T00:58:37.729Z,1017.23
2017-01-21T00:59:18.197Z,1017.22
2017-01-21T00:59:58.688Z,1017.26
2017-01-21T01:00:39.219Z,1017.25
2017-01-21T01:01:19.724Z,1017.23
2017-01-21T01:02:00.258Z,1017.21
2017-01-21T01:02:40.733Z,1017.24
2017-01-21T01:03:21.257Z,1017.22
2017-01-21T01:04:01.753Z,1017.23
2017-01-21T01:04:42.245Z,1017.21
2017-01-21T01:05:22.724Z,1017.25
2017-01-21T01:06:03.191Z,1017.21
2017-01-21T01:06:43.699Z,1017.22
2017-01-21T01:07:24.210Z,1017.18
2017-01-21T01:08:04.685Z,1017.19
2017-01-21T01:08:45.251Z,1017.24
2017-01-21T01:09:25.669Z,1017.16
2017-01-21T01:10:06.161Z,1017.23
2017-01-21T01:10:46.679Z,1017.23
2017-01-21T01:11:27.178Z,1017.2
2017-01-21T01:12:07.663Z,1017.22
2017-01-21T01:12:48.156Z,1017.27
2017-01-21T01:13:28.646Z,1017.22
2017-01-21T01:14:09.185Z,1017.25
2017-01-21T01:14:49.777Z,1017.21
2017-01-21T01:15:30.241Z,1017.24
2017-01-21T01:16:10.768Z,1017.2
2017-01-21T01:16:51.296Z,1017.24
2017-01-21T01:17:31.800Z,1017.22
2017-01-21T01:18:12.229Z,1017.22
2017-01-21T01:18:52.727Z,1017.2
2017-01-21T01:19:33.285Z,1017.24
2017-01-21T01:20:13.746Z,1017.2
2017-01-21T01:20:54.256Z,1017.17
2017-01-21T01:21:34.717Z,1017.18
2017-01-21T01:22:15.276Z,1017.26
2017-01-21T01:22:55.704Z,1017.17
2017-01-21T01:23:36.227Z,1017.25
2017-01-21T01:24:16.752Z,1017.27
2017-01-21T01:24:57.282Z,1017.29
2017-01-21T01:25:37.762Z,1017.3
2017-01-21T01:26:18.382Z,1017.3
2017-01-21T01:26:58.728Z,1017.26
2017-01-21T01:27:39.236Z,1017.24
2017-01-21T01:28:19.760Z,1017.32
2017-01-21T01:29:00.265Z,1017.23
2017-01-21T01:29:40.728Z,1017.25
2017-01-21T01:30:21.217Z,1017.28
2017-01-21T01:31:01.726Z,1017.25
2017-01-21T01:31:42.188Z,1017.25
2017-01-21T01:32:22.709Z,1017.21
2017-01-21T01:33:03.223Z,1017.22
2017-01-21T01:33:43.716Z,1017.19
2017-01-21T01:34:24.217Z,1017.23
2017-01-21T01:35:04.812Z,1017.21
2017-01-21T01:35:45.268Z,1017.19
2017-01-21T01:36:25.730Z,1017.25
2017-01-21T01:37:06.219Z,1017.18
2017-01-21T01:37:46.694Z,1017.21
2017-01-21T01:38:27.247Z,1017.21
2017-01-21T01:39:07.718Z,1017.24
2017-01-21T01:39:48.210Z,1017.2
2017-01-21T01:40:28.686Z,1017.2
2017-01-21T01:41:09.209Z,1017.18
2017-01-21T01:41:49.720Z,1017.2
2017-01-21T01:42:30.206Z,1017.15
2017-01-21T01:43:10.701Z,1017.17
2017-01-21T01:43:51.171Z,1017.17
2017-01-21T01:44:33.601Z,1017.18
2017-01-21T01:45:14.109Z,1017.25
2017-01-21T01:45:54.579Z,1017.22
2017-01-21T01:46:35.131Z,1017.25
2017-01-21T01:47:15.638Z,1017.14
2017-01-21T01:47:56.094Z,1017.2
2017-01-21T01:48:36.597Z,1017.18
2017-01-21T01:49:17.093Z,1017.18
2017-01-21T01:49:57.559Z,1017.2
2017-01-21T01:50:38.043Z,1017.23
2017-01-21T01:51:18.539Z,1017.18
2017-01-21T01:51:59.034Z,1017.19
2017-01-21T01:52:39.557Z,1017.17
2017-01-21T01:53:20.008Z,1017.23
2017-01-21T01:54:00.480Z,1017.26
2017-01-21T01:54:40.995Z,1017.24
2017-01-21T01:55:21.512Z,1017.26
2017-01-21T01:56:01.976Z,1017.21
2017-01-21T01:56:42.498Z,1017.15
2017-01-21T01:57:22.950Z,1017.19
2017-01-21T01:58:03.448Z,1017.19
2017-01-21T01:58:43.938Z,1017.15
2017-01-21T01:59:24.439Z,1017.2
2017-01-21T02:00:04.968Z,1017.16
2017-01-21T02:00:45.512Z,1017.19
2017-01-21T02:01:25.993Z,1017.23
2017-01-21T02:02:06.506Z,1017.18
2017-01-21T02:02:46.988Z,1017.23
2017-01-21T02:03:27.515Z,1017.22
2017-01-21T02:04:08.003Z,1017.19
2017-01-21T02:04:48.494Z,1017.19
2017-01-21T02:05:29.038Z,1017.16
2017-01-21T02:06:09.539Z,1017.17
2017-01-21T02:06:50.011Z,1017.16
2017-01-21T02:07:30.573Z,1017.2
2017-01-21T02:08:11.046Z,1017.18
2017-01-21T02:08:51.600Z,1017.17
2017-01-21T02:09:32.100Z,1017.19
2017-01-21T02:10:12.592Z,1017.18
2017-01-21T02:10:53.403Z,1017.18
2017-01-21T02:11:33.912Z,1017.16
2017-01-21T02:12:14.357Z,1017.17
2017-01-21T02:12:54.909Z,1017.2
2017-01-21T02:13:35.462Z,1017.2
2017-01-21T02:14:15.865Z,1017.19
2017-01-21T02:14:56.419Z,1017.18
2017-01-21T02:15:36.949Z,1017.18
2017-01-21T02:16:17.408Z,1017.16
2017-01-21T02:16:57.941Z,1017.15
2017-01-21T02:17:38.420Z,1017.14
2017-01-21T02:18:18.913Z,1017.15
2017-01-21T02:18:59.419Z,1017.11
2017-01-21T02:19:39.901Z,1017.09
2017-01-21T02:20:20.401Z,1017.09
2017-01-21T02:21:00.927Z,1017.13
2017-01-21T02:21:41.361Z,1017.1
2017-01-21T02:22:21.852Z,1017.06
2017-01-21T02:23:02.409Z,1017.1
2017-01-21T02:23:42.852Z,1017.09
2017-01-21T02:24:23.333Z,1017.13
2017-01-21T02:25:03.846Z,1017.13
2017-01-21T02:25:44.356Z,1017.09
2017-01-21T02:26:24.828Z,1017.16
2017-01-21T02:27:05.257Z,1017.13
2017-01-21T02:27:45.745Z,1017.09
2017-01-21T02:28:26.281Z,1017.11
2017-01-21T02:29:06.715Z,1017.1
2017-01-21T02:29:47.176Z,1017.09
2017-01-21T02:30:27.691Z,1017.09
2017-01-21T02:31:08.152Z,1017.07
2017-01-21T02:31:48.643Z,1017.03
2017-01-21T02:32:29.136Z,1017.04
2017-01-21T02:33:09.624Z,1017.08
2017-01-21T02:33:50.156Z,1017.04
2017-01-21T02:34:30.632Z,1017.04
2017-01-21T02:35:11.182Z,1017.01
2017-01-21T02:35:51.674Z,1016.96
2017-01-21T02:36:32.182Z,1017.01
2017-01-21T02:37:12.692Z,1016.96
2017-01-21T02:37:53.141Z,1016.94
2017-01-21T02:38:33.629Z,1016.91
2017-01-21T02:39:14.145Z,1016.93
2017-01-21T02:39:54.649Z,1016.9
2017-01-21T02:40:35.138Z,1016.92
2017-01-21T02:41:15.665Z,1016.92
2017-01-21T02:41:56.122Z,1016.91
2017-01-21T02:42:36.630Z,1016.94
2017-01-21T02:43:17.106Z,1016.89
2017-01-21T02:43:57.567Z,1016.88
2017-01-21T02:44:38.065Z,1016.88
2017-01-21T02:45:18.548Z,1016.89
2017-01-21T02:45:59.108Z,1016.88
2017-01-21T02:46:39.506Z,1016.91
2017-01-21T02:47:20.017Z,1016.88
2017-01-21T02:48:00.499Z,1016.86
2017-01-21T02:48:41.007Z,1016.87
2017-01-21T02:49:21.489Z,1016.87
2017-01-21T02:50:01.974Z,1016.82
2017-01-21T02:50:42.484Z,1016.88
2017-01-21T02:51:22.995Z,1016.83
2017-01-21T02:52:03.471Z,1016.86
2017-01-21T02:52:43.983Z,1016.83
2017-01-21T02:53:24.453Z,1016.83
2017-01-21T02:54:04.941Z,1016.85
2017-01-21T02:54:45.435Z,1016.81
2017-01-21T02:55:25.929Z,1016.84
2017-01-21T02:56:06.432Z,1016.85
2017-01-21T02:56:46.915Z,1016.84
2017-01-21T02:57:27.403Z,1016.83
2017-01-21T02:58:07.910Z,1016.84
2017-01-21T02:58:48.414Z,1016.84
2017-01-21T02:59:28.903Z,1016.85
2017-01-21T03:00:09.432Z,1016.85
2017-01-21T03:00:49.955Z,1016.84
2017-01-21T03:01:30.422Z,1016.88
2017-01-21T03:02:10.922Z,1016.9
2017-01-21T03:02:51.402Z,1016.84
2017-01-21T03:03:31.917Z,1016.87
2017-01-21T03:04:12.436Z,1016.87
2017-01-21T03:04:52.916Z,1016.88
2017-01-21T03:05:33.437Z,1016.91
2017-01-21T03:06:13.927Z,1016.92
2017-01-21T03:06:54.438Z,1016.91
2017-01-21T03:07:34.890Z,1016.91
2017-01-21T03:08:15.384Z,1016.91
2017-01-21T03:08:55.959Z,1016.91
2017-01-21T03:09:36.371Z,1016.9
2017-01-21T03:10:16.861Z,1016.91
2017-01-21T03:10:57.384Z,1016.94
2017-01-21T03:11:37.900Z,1016.91
2017-01-21T03:12:18.385Z,1016.87
2017-01-21T03:12:58.853Z,1016.92
2017-01-21T03:13:39.319Z,1016.88
2017-01-21T03:14:19.809Z,1016.85
2017-01-21T03:15:00.327Z,1016.89
2017-01-21T03:15:40.792Z,1016.89
2017-01-21T03:16:21.276Z,1016.87
2017-01-21T03:17:01.804Z,1016.86
2017-01-21T03:17:42.254Z,1016.88
2017-01-21T03:18:22.806Z,1016.9
2017-01-21T03:19:03.239Z,1016.9
2017-01-21T03:19:43.697Z,1016.91
2017-01-21T03:20:24.196Z,1016.89
2017-01-21T03:21:04.681Z,1016.84
2017-01-21T03:21:45.173Z,1016.85
2017-01-21T03:22:25.681Z,1016.89
2017-01-21T03:23:06.193Z,1016.84
2017-01-21T03:23:46.694Z,1016.89
2017-01-21T03:24:27.194Z,1016.82
2017-01-21T03:25:07.679Z,1016.9
2017-01-21T03:25:48.153Z,1016.91
2017-01-21T03:26:28.670Z,1016.86
2017-01-21T03:27:09.166Z,1016.85
2017-01-21T03:27:49.684Z,1016.89
2017-01-21T03:28:30.159Z,1016.88
2017-01-21T03:29:10.670Z,1016.86
2017-01-21T03:29:51.161Z,1016.84
2017-01-21T03:30:31.788Z,1016.83
2017-01-21T03:31:12.253Z,1016.89
2017-01-21T03:31:52.757Z,1016.9
2017-01-21T03:32:33.213Z,1016.88
2017-01-21T03:33:13.717Z,1016.91
2017-01-21T03:33:54.177Z,1016.89
2017-01-21T03:34:34.667Z,1016.83
2017-01-21T03:35:15.184Z,1016.9
2017-01-21T03:35:55.684Z,1016.89
2017-01-21T03:36:36.232Z,1016.87
2017-01-21T03:37:16.742Z,1016.92
2017-01-21T03:37:57.218Z,1016.91
2017-01-21T03:38:37.709Z,1016.85
2017-01-21T03:39:18.207Z,1016.87
2017-01-21T03:39:58.719Z,1016.92
2017-01-21T03:40:39.218Z,1016.9
2017-01-21T03:41:19.687Z,1016.85
2017-01-21T03:42:00.205Z,1016.84
2017-01-21T03:42:40.698Z,1016.85
2017-01-21T03:43:21.188Z,1016.82
2017-01-21T03:44:01.689Z,1016.86
2017-01-21T03:44:42.204Z,1016.87
2017-01-21T03:45:22.699Z,1016.86
2017-01-21T03:46:03.199Z,1016.89
2017-01-21T03:46:43.694Z,1016.84
2017-01-21T03:47:24.196Z,1016.85
2017-01-21T03:48:04.663Z,1016.85
2017-01-21T03:48:45.139Z,1016.86
2017-01-21T03:49:25.657Z,1016.88
2017-01-21T03:50:06.119Z,1016.85
2017-01-21T03:50:46.622Z,1016.88
2017-01-21T03:51:27.156Z,1016.86
2017-01-21T03:52:07.660Z,1016.87
2017-01-21T03:52:48.163Z,1016.85
2017-01-21T03:53:28.698Z,1016.88
2017-01-21T03:54:09.161Z,1016.85
2017-01-21T03:54:49.681Z,1016.9
2017-01-21T03:55:30.123Z,1016.86
2017-01-21T03:56:10.651Z,1016.9
2017-01-21T03:56:51.139Z,1016.89
2017-01-21T03:57:31.627Z,1016.86
2017-01-21T03:58:12.144Z,1016.91
2017-01-21T03:58:52.638Z,1016.9
2017-01-21T03:59:33.159Z,1016.91
2017-01-21T04:00:13.622Z,1016.9
2017-01-21T04:00:54.109Z,1016.85
2017-01-21T04:01:34.649Z,1016.88
2017-01-21T04:02:15.113Z,1016.88
2017-01-21T04:02:55.591Z,1016.89
2017-01-21T04:03:36.111Z,1016.86
2017-01-21T04:04:16.622Z,1016.9
2017-01-21T04:04:57.113Z,1016.89
2017-01-21T04:05:37.625Z,1016.84
2017-01-21T04:06:18.106Z,1016.88
2017-01-21T04:06:58.629Z,1016.85
2017-01-21T04:07:39.135Z,1016.89
2017-01-21T04:08:19.624Z,1016.89
2017-01-21T04:09:00.088Z,1016.86
2017-01-21T04:09:40.646Z,1016.87
2017-01-21T04:10:21.052Z,1016.88
2017-01-21T04:11:01.566Z,1016.83
2017-01-21T04:13:30.172Z,1016.86
2017-01-21T04:14:10.680Z,1016.79
2017-01-21T04:14:51.163Z,1016.87
2017-01-21T04:15:31.645Z,1016.86
2017-01-21T04:16:12.174Z,1016.82
2017-01-21T04:16:52.687Z,1016.87
2017-01-21T04:17:33.170Z,1016.87
2017-01-21T04:18:13.638Z,1016.89
2017-01-21T04:18:54.126Z,1016.85
2017-01-21T04:19:34.620Z,1016.86
2017-01-21T04:20:15.156Z,1016.88
2017-01-21T04:20:55.646Z,1016.84
2017-01-21T04:21:36.135Z,1016.81
2017-01-21T04:22:16.643Z,1016.85
2017-01-21T04:22:57.109Z,1016.89
2017-01-21T04:23:37.628Z,1016.88
2017-01-21T04:24:18.225Z,1016.87
2017-01-21T04:24:58.747Z,1016.87
2017-01-21T04:25:39.219Z,1016.82
2017-01-21T04:26:19.703Z,1016.84
2017-01-21T04:27:00.205Z,1016.77
2017-01-21T04:27:40.688Z,1016.8
2017-01-21T04:28:21.202Z,1016.82
2017-01-21T04:29:01.677Z,1016.78
2017-01-21T04:29:42.186Z,1016.76
2017-01-21T04:30:22.684Z,1016.79
2017-01-21T04:31:03.166Z,1016.79
2017-01-21T04:31:43.677Z,1016.79
2017-01-21T04:32:24.173Z,1016.81
2017-01-21T04:33:04.633Z,1016.72
2017-01-21T04:33:45.145Z,1016.74
2017-01-21T04:34:25.607Z,1016.74
2017-01-21T04:35:06.120Z,1016.75
2017-01-21T04:35:46.597Z,1016.71
2017-01-21T04:36:27.065Z,1016.77
2017-01-21T04:37:07.546Z,1016.78
2017-01-21T04:37:48.053Z,1016.75
2017-01-21T04:38:28.538Z,1016.78
2017-01-21T04:39:09.031Z,1016.75
2017-01-21T04:39:49.523Z,1016.75
2017-01-21T04:40:29.992Z,1016.78
2017-01-21T04:41:10.504Z,1016.77
2017-01-21T04:41:50.991Z,1016.72
2017-01-21T04:42:31.533Z,1016.74
2017-01-21T04:43:11.978Z,1016.78
2017-01-21T04:43:52.477Z,1016.7
2017-01-21T04:44:32.984Z,1016.75
2017-01-21T04:45:13.472Z,1016.77
2017-01-21T04:45:53.968Z,1016.74
2017-01-21T04:46:34.461Z,1016.7
2017-01-21T04:47:14.939Z,1016.75
2017-01-21T04:47:55.486Z,1016.75
2017-01-21T04:48:35.927Z,1016.77
2017-01-21T04:49:16.429Z,1016.72
2017-01-21T04:49:56.927Z,1016.77
2017-01-21T04:50:37.454Z,1016.73
2017-01-21T04:51:17.927Z,1016.73
2017-01-21T04:51:58.466Z,1016.78
2017-01-21T04:52:38.914Z,1016.78
2017-01-21T04:53:19.410Z,1016.75
2017-01-21T04:53:59.863Z,1016.8
2017-01-21T04:54:40.354Z,1016.73
2017-01-21T04:55:20.873Z,1016.71
2017-01-21T04:56:01.380Z,1016.74
2017-01-21T04:56:41.851Z,1016.8
2017-01-21T04:57:22.364Z,1016.77
2017-01-21T04:58:02.857Z,1016.82
2017-01-21T04:58:43.350Z,1016.79
2017-01-21T04:59:23.869Z,1016.76
2017-01-21T05:00:04.323Z,1016.78
2017-01-21T05:00:44.815Z,1016.76
2017-01-21T05:01:25.309Z,1016.84
2017-01-21T05:02:05.801Z,1016.76
2017-01-21T05:02:46.282Z,1016.79
2017-01-21T05:03:26.824Z,1016.8
2017-01-21T05:04:07.292Z,1016.74
2017-01-21T05:04:47.770Z,1016.76
2017-01-21T05:05:28.254Z,1016.8
2017-01-21T05:06:08.749Z,1016.74
2017-01-21T05:06:49.196Z,1016.78
2017-01-21T05:07:29.701Z,1016.79
2017-01-21T05:08:10.183Z,1016.76
2017-01-21T05:08:50.651Z,1016.69
2017-01-21T05:09:31.164Z,1016.78
2017-01-21T05:10:11.639Z,1016.72
2017-01-21T05:10:52.124Z,1016.73
2017-01-21T05:11:32.609Z,1016.72
2017-01-21T05:12:13.249Z,1016.73
2017-01-21T05:12:53.685Z,1016.74
2017-01-21T05:13:34.164Z,1016.73
2017-01-21T05:14:14.673Z,1016.73
2017-01-21T05:14:55.146Z,1016.77
2017-01-21T05:15:35.646Z,1016.77
2017-01-21T05:16:16.190Z,1016.77
2017-01-21T05:16:56.635Z,1016.72
2017-01-21T05:17:37.132Z,1016.76
2017-01-21T05:18:17.604Z,1016.71
2017-01-21T05:18:58.091Z,1016.76
2017-01-21T05:19:38.591Z,1016.73
2017-01-21T05:20:19.110Z,1016.78
2017-01-21T05:20:59.582Z,1016.74
2017-01-21T05:21:40.068Z,1016.74
2017-01-21T05:22:20.572Z,1016.75
2017-01-21T05:23:01.026Z,1016.74
2017-01-21T05:23:41.495Z,1016.71
2017-01-21T05:24:22.012Z,1016.77
2017-01-21T05:25:02.531Z,1016.7
2017-01-21T05:25:43.002Z,1016.73
2017-01-21T05:26:23.489Z,1016.72
2017-01-21T05:27:03.971Z,1016.71
2017-01-21T05:27:44.464Z,1016.7
2017-01-21T05:28:24.954Z,1016.72
2017-01-21T05:29:05.477Z,1016.73
2017-01-21T05:29:45.988Z,1016.74
2017-01-21T05:30:26.373Z,1016.7
2017-01-21T05:31:06.853Z,1016.73
2017-01-21T05:31:47.357Z,1016.73
2017-01-21T05:32:27.872Z,1016.77
2017-01-21T05:33:08.339Z,1016.75
2017-01-21T05:33:48.828Z,1016.71
2017-01-21T05:34:29.335Z,1016.72
2017-01-21T05:35:09.774Z,1016.71
2017-01-21T05:35:50.281Z,1016.74
2017-01-21T05:36:30.771Z,1016.74
2017-01-21T05:37:11.259Z,1016.72
2017-01-21T05:37:51.801Z,1016.79
2017-01-21T05:38:32.282Z,1016.74
2017-01-21T05:39:12.782Z,1016.75
2017-01-21T05:39:53.265Z,1016.74
2017-01-21T05:40:33.716Z,1016.74
2017-01-21T05:41:14.226Z,1016.79
2017-01-21T05:41:54.689Z,1016.79
2017-01-21T05:42:35.167Z,1016.77
2017-01-21T05:43:15.682Z,1016.79
2017-01-21T05:43:56.182Z,1016.79
2017-01-21T05:44:36.691Z,1016.74
2017-01-21T05:45:17.188Z,1016.78
2017-01-21T05:45:57.708Z,1016.76
2017-01-21T05:46:38.214Z,1016.8
2017-01-21T05:47:18.730Z,1016.8
2017-01-21T05:47:59.247Z,1016.82
2017-01-21T05:48:39.751Z,1016.83
2017-01-21T05:49:20.213Z,1016.82
2017-01-21T05:50:00.719Z,1016.82
2017-01-21T05:50:41.204Z,1016.87
2017-01-21T05:51:21.697Z,1016.8
2017-01-21T05:52:02.182Z,1016.84
2017-01-21T05:52:42.700Z,1016.82
2017-01-21T05:53:23.203Z,1016.86
2017-01-21T05:54:03.680Z,1016.88
2017-01-21T05:54:44.158Z,1016.89
2017-01-21T05:55:24.642Z,1016.86
2017-01-21T05:56:05.161Z,1016.89
2017-01-21T05:56:45.619Z,1016.88
2017-01-21T05:57:26.109Z,1016.91
2017-01-21T05:58:06.588Z,1016.92
2017-01-21T05:58:47.062Z,1016.91
2017-01-21T05:59:27.574Z,1016.94
2017-01-21T06:00:08.085Z,1016.95
2017-01-21T06:00:48.597Z,1016.95
2017-01-21T06:01:29.049Z,1016.98
2017-01-21T06:02:09.540Z,1017
2017-01-21T06:02:50.003Z,1016.99
2017-01-21T06:03:30.528Z,1017
2017-01-21T06:04:11.012Z,1017.01
2017-01-21T06:04:51.520Z,1016.98
2017-01-21T06:05:32.027Z,1016.98
2017-01-21T06:06:12.497Z,1016.96
2017-01-21T06:06:53.014Z,1016.98
2017-01-21T06:07:33.526Z,1016.99
2017-01-21T06:08:13.994Z,1016.98
2017-01-21T06:08:54.502Z,1016.98
2017-01-21T06:09:34.965Z,1016.98
2017-01-21T06:10:15.465Z,1017
2017-01-21T06:10:55.986Z,1016.98
2017-01-21T06:11:36.538Z,1016.98
2017-01-21T06:12:16.960Z,1016.98
2017-01-21T06:12:57.436Z,1017.04
2017-01-21T06:13:37.942Z,1017.06
2017-01-21T06:14:18.435Z,1017.01
2017-01-21T06:14:58.966Z,1017
2017-01-21T06:15:39.401Z,1017.01
2017-01-21T06:16:19.918Z,1017.03
2017-01-21T06:17:00.420Z,1016.99
2017-01-21T06:17:40.918Z,1016.98
2017-01-21T06:18:21.413Z,1017.03
2017-01-21T06:19:01.952Z,1017.01
2017-01-21T06:19:42.433Z,1017.03
2017-01-21T06:20:22.884Z,1017
2017-01-21T06:21:03.371Z,1017.02
2017-01-21T06:21:43.890Z,1016.94
2017-01-21T06:22:24.387Z,1016.93
2017-01-21T06:23:04.873Z,1016.89
2017-01-21T06:23:45.385Z,1016.93
2017-01-21T06:24:25.903Z,1016.94
2017-01-21T06:25:06.367Z,1016.95
2017-01-21T06:25:46.916Z,1016.92
2017-01-21T06:26:27.418Z,1016.97
2017-01-21T06:27:07.904Z,1016.99
2017-01-21T06:27:48.406Z,1016.99
2017-01-21T06:28:28.894Z,1016.96
2017-01-21T06:29:09.388Z,1017.03
2017-01-21T06:29:49.919Z,1017.01
2017-01-21T06:30:30.379Z,1017.01
2017-01-21T06:31:10.867Z,1016.99
2017-01-21T06:31:51.342Z,1016.98
2017-01-21T06:32:31.833Z,1017.01
2017-01-21T06:33:12.345Z,1017.04
2017-01-21T06:33:52.860Z,1017.06
2017-01-21T06:34:33.386Z,1017.06
2017-01-21T06:35:13.845Z,1017.05
2017-01-21T06:35:54.308Z,1017.08
2017-01-21T06:36:34.800Z,1017.08
2017-01-21T06:37:15.300Z,1017.08
2017-01-21T06:37:55.796Z,1017.03
2017-01-21T06:38:36.276Z,1017.04
2017-01-21T06:39:16.756Z,1017.04
2017-01-21T06:39:57.239Z,1017.07
2017-01-21T06:40:37.715Z,1017.04
2017-01-21T06:41:18.229Z,1017.06
2017-01-21T06:41:58.759Z,1017.08
2017-01-21T06:42:39.220Z,1017.1
2017-01-21T06:43:19.711Z,1017.03
2017-01-21T06:44:00.189Z,1017.08
2017-01-21T06:44:40.678Z,1017.05
2017-01-21T06:45:21.129Z,1017.07
2017-01-21T06:46:01.656Z,1017.11
2017-01-21T06:48:30.099Z,1017.03
2017-01-21T06:49:10.589Z,1017.08
2017-01-21T06:49:51.092Z,1017.03
2017-01-21T06:50:31.593Z,1017.06
2017-01-21T06:51:12.101Z,1017.07
2017-01-21T06:51:52.562Z,1017.07
2017-01-21T06:52:33.047Z,1017.06
2017-01-21T06:53:13.559Z,1017.11
2017-01-21T06:53:54.035Z,1017.03
2017-01-21T06:54:34.563Z,1017.06
2017-01-21T06:55:14.972Z,1017.15
2017-01-21T06:55:55.469Z,1017.1
2017-01-21T06:56:35.949Z,1017.12
2017-01-21T06:57:16.439Z,1017.11
2017-01-21T06:57:56.938Z,1017.16
2017-01-21T06:58:37.423Z,1017.2
2017-01-21T06:59:17.917Z,1017.21
2017-01-21T06:59:58.394Z,1017.2
2017-01-21T07:00:38.907Z,1017.18
2017-01-21T07:01:19.434Z,1017.22
2017-01-21T07:01:59.924Z,1017.2
2017-01-21T07:02:40.423Z,1017.24
2017-01-21T07:03:20.933Z,1017.18
2017-01-21T07:04:01.429Z,1017.19
2017-01-21T07:04:42.003Z,1017.24
2017-01-21T07:05:22.310Z,1017.21
2017-01-21T07:06:02.807Z,1017.23
2017-01-21T07:06:43.316Z,1017.23
2017-01-21T07:07:23.773Z,1017.2
2017-01-21T07:08:04.319Z,1017.22
2017-01-21T07:08:44.766Z,1017.2
2017-01-21T07:09:25.269Z,1017.19
2017-01-21T07:10:05.701Z,1017.24
2017-01-21T07:10:46.221Z,1017.28
2017-01-21T07:11:26.716Z,1017.23
2017-01-21T07:12:07.164Z,1017.22
2017-01-21T07:12:47.662Z,1017.24
2017-01-21T07:13:28.173Z,1017.22
2017-01-21T07:14:08.662Z,1017.23
2017-01-21T07:14:49.229Z,1017.23
2017-01-21T07:15:29.658Z,1017.26
2017-01-21T07:16:10.210Z,1017.25
2017-01-21T07:16:50.657Z,1017.25
2017-01-21T07:17:31.162Z,1017.28
2017-01-21T07:18:11.649Z,1017.24
2017-01-21T07:18:52.195Z,1017.28
2017-01-21T07:19:32.766Z,1017.29
2017-01-21T07:20:13.249Z,1017.27
2017-01-21T07:20:53.709Z,1017.24
2017-01-21T07:21:34.179Z,1017.22
2017-01-21T07:22:14.672Z,1017.25
2017-01-21T07:22:55.190Z,1017.22
2017-01-21T07:23:35.765Z,1017.21
2017-01-21T07:24:16.238Z,1017.19
2017-01-21T07:24:56.744Z,1017.25
2017-01-21T07:25:37.228Z,1017.22
2017-01-21T07:26:17.704Z,1017.21
2017-01-21T07:26:58.172Z,1017.23
2017-01-21T07:27:38.669Z,1017.21
2017-01-21T07:28:19.090Z,1017.26
2017-01-21T07:28:59.574Z,1017.23
2017-01-21T07:29:40.030Z,1017.26
2017-01-21T07:30:20.592Z,1017.21
2017-01-21T07:31:01.134Z,1017.27
2017-01-21T07:31:41.504Z,1017.23
2017-01-21T07:32:22.019Z,1017.27
2017-01-21T07:33:02.460Z,1017.21
2017-01-21T07:33:43.000Z,1017.27
2017-01-21T07:34:23.481Z,1017.29
2017-01-21T07:35:03.928Z,1017.26
2017-01-21T07:35:44.404Z,1017.27
2017-01-21T07:36:24.959Z,1017.33
2017-01-21T07:37:06.082Z,1017.23
2017-01-21T07:37:46.537Z,1017.28
2017-01-21T07:38:27.002Z,1017.3
2017-01-21T07:39:07.745Z,1017.27
2017-01-21T07:39:48.251Z,1017.25
2017-01-21T07:40:29.056Z,1017.28
2017-01-21T07:41:09.454Z,1017.3
2017-01-21T07:41:49.937Z,1017.3
2017-01-21T07:42:30.457Z,1017.26
2017-01-21T07:43:10.943Z,1017.31
2017-01-21T07:43:51.449Z,1017.28
2017-01-21T07:44:31.931Z,1017.27
2017-01-21T07:45:12.456Z,1017.27
2017-01-21T07:45:52.942Z,1017.31
2017-01-21T07:46:33.444Z,1017.28
2017-01-21T07:47:14.582Z,1017.33
2017-01-21T07:47:55.008Z,1017.3
2017-01-21T07:48:35.499Z,1017.31
2017-01-21T07:49:16.100Z,1017.26
2017-01-21T07:49:56.579Z,1017.3
2017-01-21T07:50:37.338Z,1017.23
2017-01-21T07:51:17.709Z,1017.25
2017-01-21T07:51:58.228Z,1017.25
2017-01-21T07:52:38.673Z,1017.21
2017-01-21T07:53:19.200Z,1017.2
2017-01-21T07:53:59.764Z,1017.23
2017-01-21T07:54:40.304Z,1017.25
2017-01-21T07:55:20.780Z,1017.24
2017-01-21T07:56:01.363Z,1017.21
2017-01-21T07:56:41.891Z,1017.27
2017-01-21T07:57:22.392Z,1017.25
2017-01-21T07:58:02.839Z,1017.29
2017-01-21T07:58:43.446Z,1017.3
2017-01-21T07:59:24.366Z,1017.31
2017-01-21T08:00:04.883Z,1017.34
2017-01-21T08:00:45.469Z,1017.34
2017-01-21T08:01:26.013Z,1017.34
2017-01-21T08:02:06.477Z,1017.41
2017-01-21T08:02:46.976Z,1017.41
2017-01-21T08:03:27.479Z,1017.41
2017-01-21T08:04:07.970Z,1017.38
2017-01-21T08:04:48.464Z,1017.39
2017-01-21T08:05:28.958Z,1017.36
2017-01-21T08:06:09.476Z,1017.37
2017-01-21T08:06:49.906Z,1017.37
2017-01-21T08:07:30.457Z,1017.39
2017-01-21T08:08:10.942Z,1017.36
2017-01-21T08:08:51.483Z,1017.38
2017-01-21T08:09:32.037Z,1017.39
2017-01-21T08:10:12.627Z,1017.35
2017-01-21T08:10:53.075Z,1017.36
2017-01-21T08:11:33.570Z,1017.34
2017-01-21T08:12:14.050Z,1017.35
2017-01-21T08:12:54.516Z,1017.37
2017-01-21T08:13:35.142Z,1017.33
2017-01-21T08:14:15.651Z,1017.31
2017-01-21T08:14:56.201Z,1017.32
2017-01-21T08:15:36.784Z,1017.32